Time;durP1;ratioP1;P1;durP2;ratioP2;P2;SDS_P1;SDS_P2;PMS_P1;PMS_P2;Temp;Humidity;BMP_temperature;BMP_pressure;BME280_temperature;BME280_humidity;BME280_pressure;Samples;Min_cycle;Max_cycle;Signal;HPM_P1;HPM_P2
2023/11/08 00:00:53;;;;;;;9.50;4.50;;;;;;;10.21;68.28;101035.86;107598;1251;107812;-63
2023/11/08 00:03:42;;;;;;;10.90;4.20;;;;;;;10.25;68.51;101042.21;107609;1253;99196;-63
2023/11/08 00:06:11;;;;;;;9.10;4.20;;;;;;;10.26;69.42;101040.64;107552;1251;99227;-62
2023/11/08 00:08:40;;;;;;;13.50;4.20;;;;;;;10.26;68.96;101030.48;107666;1255;113104;-63
2023/11/08 00:11:08;;;;;;;10.60;5.10;;;;;;;10.27;68.86;101032.65;107653;1251;108751;-63
2023/11/08 00:13:39;;;;;;;8.70;3.90;;;;;;;10.30;68.89;101031.77;107557;1251;108176;-61
2023/11/08 00:16:07;;;;;;;8.10;3.50;;;;;;;10.31;68.71;101023.40;107500;1253;99235;-63
2023/11/08 00:18:35;;;;;;;9.80;3.80;;;;;;;10.31;68.90;101020.67;107638;1255;99286;-62
2023/11/08 00:21:05;;;;;;;10.40;4.00;;;;;;;10.32;68.75;101025.82;107623;1253;112066;-61
2023/11/08 00:23:33;;;;;;;13.90;4.20;;;;;;;10.32;68.71;101030.08;107628;1252;108061;-62
2023/11/08 00:26:03;;;;;;;11.60;4.30;;;;;;;10.35;68.76;101030.41;107579;1251;108054;-61
2023/11/08 00:28:32;;;;;;;8.70;3.70;;;;;;;10.38;68.58;101023.41;107601;1251;99031;-62
2023/11/08 00:31:01;;;;;;;8.70;4.00;;;;;;;10.40;68.76;101015.14;107641;1254;99129;-62
2023/11/08 00:33:30;;;;;;;13.30;3.70;;;;;;;10.40;68.75;101003.28;107714;1250;113136;-63
2023/11/08 00:35:59;;;;;;;16.60;4.20;;;;;;;10.41;68.90;100998.16;107601;1253;110014;-63
2023/11/08 00:38:27;;;;;;;10.00;3.70;;;;;;;10.43;68.99;100994.87;107500;1250;107647;-61
2023/11/08 00:40:55;;;;;;;10.90;3.60;;;;;;;10.46;69.17;100990.64;107570;1251;99226;-61
2023/11/08 00:43:23;;;;;;;15.70;4.40;;;;;;;10.48;69.11;100984.92;107587;1251;99240;-63
2023/11/08 00:45:52;;;;;;;12.00;4.20;;;;;;;10.47;68.84;100981.35;107583;1250;112892;-63
2023/11/08 00:48:23;;;;;;;9.40;3.40;;;;;;;10.51;69.14;100980.70;107543;1251;109261;-62
2023/11/08 00:50:54;;;;;;;12.00;3.20;;;;;;;10.57;69.24;100973.41;107422;1251;107517;-62
2023/11/08 00:53:22;;;;;;;10.50;3.80;;;;;;;10.62;69.25;100959.52;107546;1251;99182;-62
2023/11/08 00:55:51;;;;;;;14.20;4.00;;;;;;;10.67;69.34;100953.71;107465;1249;99727;-62
2023/11/08 00:58:19;;;;;;;8.70;3.80;;;;;;;10.74;69.35;100950.80;107586;1257;112563;-63
2023/11/08 01:00:49;;;;;;;9.90;3.60;;;;;;;10.80;69.31;100932.46;107550;1251;109971;-63
2023/11/08 01:03:17;;;;;;;14.40;4.10;;;;;;;10.87;69.15;100913.43;107588;1255;108547;-62
2023/11/08 01:05:46;;;;;;;12.50;4.50;;;;;;;10.92;68.94;100914.22;107542;1252;99167;-61
2023/11/08 01:08:16;;;;;;;14.20;4.10;;;;;;;10.93;68.80;100919.30;107580;1253;99065;-64
2023/11/08 01:10:46;;;;;;;9.60;4.30;;;;;;;10.97;68.86;100920.79;107628;1254;113740;-63
2023/11/08 01:13:14;;;;;;;11.80;3.80;;;;;;;10.99;68.56;100916.09;107618;1251;109296;-63
2023/11/08 01:15:43;;;;;;;14.50;4.20;;;;;;;11.01;68.47;100913.48;107614;1254;108443;-62
2023/11/08 01:18:12;;;;;;;11.00;4.30;;;;;;;11.00;68.22;100913.14;107552;1254;99192;-63
2023/11/08 01:20:41;;;;;;;12.30;4.40;;;;;;;10.96;67.88;100903.63;107632;1251;99158;-62
2023/11/08 01:23:10;;;;;;;13.80;4.20;;;;;;;10.94;67.56;100901.66;107552;1251;112071;-63
2023/11/08 01:25:38;;;;;;;13.40;4.40;;;;;;;10.90;67.76;100898.05;107507;1251;109707;-62
2023/11/08 01:28:07;;;;;;;9.80;3.60;;;;;;;10.88;67.71;100902.02;107446;1251;108495;-62
2023/11/08 01:30:36;;;;;;;8.90;4.30;;;;;;;10.82;67.72;100896.47;107473;1250;99160;-63
2023/11/08 01:33:04;;;;;;;15.10;4.00;;;;;;;10.73;67.73;100901.70;107483;1251;98192;-63
2023/11/08 01:35:32;;;;;;;10.30;4.20;;;;;;;10.66;68.01;100901.96;107521;1251;113314;-63
2023/11/08 01:38:01;;;;;;;17.90;4.80;;;;;;;10.61;68.04;100897.70;107425;1251;110256;-62
2023/11/08 01:40:29;;;;;;;8.00;3.60;;;;;;;10.56;69.03;100890.08;107585;1254;108726;-63
2023/11/08 01:42:58;;;;;;;15.90;3.90;;;;;;;10.50;69.17;100884.49;107555;1250;99077;-63
2023/11/08 01:45:27;;;;;;;12.80;3.80;;;;;;;10.46;69.01;100888.55;107539;1251;99809;-63
2023/11/08 01:47:56;;;;;;;13.60;4.00;;;;;;;10.45;69.00;100881.34;107504;1253;113255;-63
2023/11/08 01:50:25;;;;;;;7.50;3.50;;;;;;;10.47;69.08;100876.49;107626;1254;109904;-62
2023/11/08 01:52:53;;;;;;;14.10;4.30;;;;;;;10.48;69.36;100870.14;107558;1251;107325;-62
2023/11/08 01:55:22;;;;;;;17.80;3.90;;;;;;;10.49;69.21;100859.86;107501;1251;99192;-62
2023/11/08 01:57:51;;;;;;;11.70;3.50;;;;;;;10.53;69.36;100848.76;107532;1253;99281;-62
2023/11/08 02:00:23;;;;;;;11.80;3.90;;;;;;;10.58;69.44;100844.50;107501;1251;113294;-63
2023/11/08 02:02:51;;;;;;;8.90;3.40;;;;;;;10.64;69.48;100842.52;107539;1254;109795;-62
2023/11/08 02:05:22;;;;;;;9.60;4.10;;;;;;;10.70;69.56;100837.23;107401;1251;106985;-63
2023/11/08 02:07:55;;;;;;;10.00;3.30;;;;;;;10.75;69.43;100832.05;107620;1253;99207;-62
2023/11/08 02:10:24;;;;;;;13.10;3.90;;;;;;;10.80;69.24;100828.08;107558;1253;99390;-62
2023/11/08 02:12:53;;;;;;;12.90;3.50;;;;;;;10.83;69.06;100827.23;107584;1253;112658;-61
2023/11/08 02:15:24;;;;;;;7.30;3.70;;;;;;;10.87;69.01;100820.65;107461;1251;107044;-62
2023/11/08 02:17:53;;;;;;;8.70;4.00;;;;;;;10.90;68.86;100818.56;107618;1254;107628;-61
2023/11/08 02:20:21;;;;;;;7.40;3.20;;;;;;;10.92;68.81;100812.62;107569;1251;99243;-62
2023/11/08 02:22:50;;;;;;;17.20;3.70;;;;;;;10.93;68.64;100817.42;107587;1252;99794;-62
2023/11/08 02:25:18;;;;;;;12.60;3.80;;;;;;;10.94;68.45;100821.04;107599;1252;112580;-62
2023/11/08 02:27:47;;;;;;;12.40;3.80;;;;;;;10.97;68.44;100815.50;107681;1251;107899;-62
2023/11/08 02:30:17;;;;;;;8.00;3.40;;;;;;;10.98;68.32;100814.14;107612;1251;107825;-62
2023/11/08 02:32:46;;;;;;;14.10;3.90;;;;;;;10.99;68.36;100813.17;107616;1251;99061;-63
2023/11/08 02:35:15;;;;;;;11.80;4.10;;;;;;;10.97;68.12;100814.54;107589;1251;99769;-63
2023/11/08 02:37:45;;;;;;;13.60;3.90;;;;;;;10.95;67.98;100815.27;107628;1251;113212;-63
2023/11/08 02:40:14;;;;;;;11.60;3.10;;;;;;;10.91;67.74;100813.41;107638;1251;108344;-62
2023/11/08 02:42:44;;;;;;;5.30;3.20;;;;;;;10.84;67.55;100806.34;107508;1251;107275;-62
2023/11/08 02:45:13;;;;;;;12.90;3.80;;;;;;;10.80;67.64;100795.98;107604;1251;99196;-62
2023/11/08 02:47:42;;;;;;;11.50;3.30;;;;;;;10.76;67.60;100789.34;107660;1255;99231;-62
2023/11/08 02:50:10;;;;;;;15.80;3.80;;;;;;;10.72;67.61;100782.30;107650;1253;112615;-61
2023/11/08 02:52:39;;;;;;;10.50;3.30;;;;;;;10.67;67.50;100772.33;107579;1251;108928;-63
2023/11/08 02:55:08;;;;;;;7.80;3.90;;;;;;;10.63;67.53;100769.81;107568;1251;107197;-62
2023/11/08 02:57:36;;;;;;;8.30;3.30;;;;;;;10.59;67.53;100766.23;107613;1251;99203;-62
2023/11/08 03:00:06;;;;;;;12.30;3.60;;;;;;;10.55;67.51;100761.95;107523;1251;99724;-61
2023/11/08 03:02:34;;;;;;;8.00;3.30;;;;;;;10.51;67.64;100757.97;107613;1251;113755;-62
2023/11/08 03:05:03;;;;;;;15.50;3.80;;;;;;;10.47;67.61;100753.46;107650;1256;108794;-63
2023/11/08 03:07:32;;;;;;;11.60;3.60;;;;;;;10.43;67.71;100753.12;107601;1255;107048;-63
2023/11/08 03:10:01;;;;;;;13.70;3.50;;;;;;;10.36;67.70;100751.75;107542;1252;99179;-61
2023/11/08 03:12:31;;;;;;;8.40;3.10;;;;;;;10.33;67.89;100746.97;107598;1251;99074;-61
2023/11/08 03:14:59;;;;;;;13.50;4.00;;;;;;;10.30;68.14;100744.92;107619;1251;112899;-62
2023/11/08 03:17:28;;;;;;;7.70;3.30;;;;;;;10.31;68.32;100743.23;107653;1255;109574;-63
2023/11/08 03:19:57;;;;;;;12.90;3.40;;;;;;;10.31;68.62;100748.06;107569;1252;107820;-63
2023/11/08 03:22:25;;;;;;;12.90;3.30;;;;;;;10.32;68.79;100750.48;107542;1255;99045;-64
2023/11/08 03:24:54;;;;;;;11.20;3.00;;;;;;;10.32;69.27;100754.78;107630;1253;99715;-64
2023/11/08 03:27:22;;;;;;;10.80;3.00;;;;;;;10.28;69.19;100748.95;107652;1252;113262;-64
2023/11/08 03:29:51;;;;;;;8.00;3.00;;;;;;;10.28;69.30;100741.66;107610;1251;108366;-62
2023/11/08 03:32:22;;;;;;;9.20;5.00;;;;;;;10.30;69.55;100745.44;107632;1251;107151;-62
2023/11/08 03:34:51;;;;;;;8.70;3.30;;;;;;;10.30;69.87;100733.73;107584;1253;99197;-62
2023/11/08 03:37:19;;;;;;;12.60;3.30;;;;;;;10.31;70.44;100742.80;107631;1253;99213;-63
2023/11/08 03:39:48;;;;;;;7.60;3.70;;;;;;;10.32;70.31;100734.36;107552;1253;112255;-63
2023/11/08 03:42:17;;;;;;;8.20;3.10;;;;;;;10.35;70.17;100738.75;107640;1251;110156;-63
2023/11/08 03:44:45;;;;;;;11.20;3.70;;;;;;;10.39;70.42;100733.23;107615;1253;109177;-62
2023/11/08 03:47:13;;;;;;;8.00;3.20;;;;;;;10.42;70.39;100747.30;107618;1251;99193;-64
2023/11/08 03:49:42;;;;;;;15.00;3.80;;;;;;;10.42;70.32;100748.89;107550;1251;99063;-62
2023/11/08 03:52:10;;;;;;;14.00;3.20;;;;;;;10.44;70.34;100741.08;107565;1253;112456;-63
2023/11/08 03:54:38;;;;;;;11.70;3.10;;;;;;;10.44;70.32;100736.73;107635;1253;109714;-62
2023/11/08 03:57:07;;;;;;;8.10;3.30;;;;;;;10.45;70.30;100735.75;107555;1251;108507;-62
2023/11/08 03:59:35;;;;;;;6.30;3.20;;;;;;;10.46;70.34;100735.47;107571;1253;99290;-61
2023/11/08 04:02:03;;;;;;;22.10;8.70;;;;;;;10.48;70.34;100733.84;107631;1253;99061;-62
2023/11/08 04:04:31;;;;;;;5.50;2.70;;;;;;;10.50;70.59;100730.80;107616;1251;113368;-62
2023/11/08 04:07:00;;;;;;;10.60;3.20;;;;;;;10.47;71.00;100732.16;107563;1251;108764;-63
2023/11/08 04:09:28;;;;;;;9.20;3.00;;;;;;;10.43;70.77;100727.15;107566;1253;107613;-62
2023/11/08 04:11:57;;;;;;;7.20;3.30;;;;;;;10.45;70.75;100734.27;107612;1253;99188;-62
2023/11/08 04:14:25;;;;;;;7.70;3.10;;;;;;;10.46;70.75;100742.61;107639;1251;99068;-62
2023/11/08 04:16:54;;;;;;;6.90;3.10;;;;;;;10.49;70.64;100744.20;107573;1253;113095;-62
2023/11/08 04:19:22;;;;;;;8.90;3.00;;;;;;;10.49;70.53;100739.67;107637;1251;109691;-63
2023/11/08 04:21:51;;;;;;;7.20;3.20;;;;;;;10.51;70.87;100741.34;107579;1251;108430;-61
2023/11/08 04:24:19;;;;;;;8.60;3.20;;;;;;;10.47;70.87;100744.85;107612;1251;99169;-63
2023/11/08 04:26:48;;;;;;;7.00;3.00;;;;;;;10.46;70.91;100751.10;107611;1255;99075;-62
2023/11/08 04:29:16;;;;;;;10.60;3.70;;;;;;;10.45;70.81;100760.69;107546;1252;112541;-62
2023/11/08 04:31:45;;;;;;;7.40;3.40;;;;;;;10.45;70.66;100761.59;107567;1251;110854;-63
2023/11/08 04:34:14;;;;;;;14.40;3.70;;;;;;;10.45;70.62;100763.17;107585;1251;108358;-62
2023/11/08 04:36:42;;;;;;;8.70;3.40;;;;;;;10.45;70.52;100764.02;107608;1253;99183;-63
2023/11/08 04:39:13;;;;;;;13.30;3.50;;;;;;;10.45;70.50;100762.64;107611;1253;101972;-61
2023/11/08 04:41:41;;;;;;;8.20;3.10;;;;;;;10.46;70.54;100768.67;107583;1253;116075;-62
2023/11/08 04:44:10;;;;;;;8.70;3.00;;;;;;;10.46;70.75;100771.30;107580;1251;109283;-63
2023/11/08 04:46:40;;;;;;;10.50;3.50;;;;;;;10.48;70.69;100773.34;107559;1253;108321;-62
2023/11/08 04:49:09;;;;;;;8.00;3.50;;;;;;;10.50;71.01;100771.72;107555;1253;99108;-63
2023/11/08 04:51:38;;;;;;;14.00;3.70;;;;;;;10.50;71.58;100757.68;107613;1253;99981;-62
2023/11/08 04:54:07;;;;;;;10.60;3.40;;;;;;;10.51;71.57;100750.08;107594;1255;113595;-61
2023/11/08 04:56:35;;;;;;;11.00;3.80;;;;;;;10.55;71.74;100750.66;107583;1253;109046;-62
2023/11/08 04:59:05;;;;;;;6.80;3.20;;;;;;;10.59;72.12;100749.39;107584;1252;107859;-62
2023/11/08 05:01:34;;;;;;;6.20;3.00;;;;;;;10.63;72.12;100753.82;107623;1255;99215;-62
2023/11/08 05:04:02;;;;;;;12.20;4.10;;;;;;;10.69;72.06;100752.23;107608;1251;99068;-62
2023/11/08 05:06:30;;;;;;;12.70;3.30;;;;;;;10.73;72.37;100749.04;107578;1253;112242;-62
2023/11/08 05:08:59;;;;;;;9.70;3.70;;;;;;;10.76;72.21;100748.05;107556;1253;109387;-62
2023/11/08 05:11:28;;;;;;;8.60;3.40;;;;;;;10.82;72.47;100748.61;107613;1255;109353;-62
2023/11/08 05:13:57;;;;;;;13.20;3.50;;;;;;;10.88;72.59;100750.00;107503;1252;99187;-62
2023/11/08 05:16:25;;;;;;;14.40;3.60;;;;;;;10.94;72.62;100751.43;107437;1251;99058;-60
2023/11/08 05:18:53;;;;;;;12.80;3.90;;;;;;;11.00;72.77;100755.60;107579;1251;114644;-62
2023/11/08 05:21:23;;;;;;;10.50;4.80;;;;;;;11.03;72.52;100760.20;107597;1254;109977;-61
2023/11/08 05:23:51;;;;;;;9.60;4.10;;;;;;;11.08;72.60;100764.77;107603;1251;108261;-60
2023/11/08 05:26:19;;;;;;;12.30;4.30;;;;;;;11.12;72.67;100757.34;107585;1251;99175;-61
2023/11/08 05:28:47;;;;;;;10.50;4.60;;;;;;;11.15;72.68;100749.38;107580;1251;99307;-62
2023/11/08 05:31:16;;;;;;;10.20;3.50;;;;;;;11.17;72.63;100743.31;107555;1253;112752;-61
2023/11/08 05:33:45;;;;;;;8.20;3.30;;;;;;;11.12;72.50;100739.44;107485;1252;110444;-62
2023/11/08 05:36:15;;;;;;;9.40;5.20;;;;;;;11.11;72.59;100737.94;107558;1251;108461;-60
2023/11/08 05:38:44;;;;;;;10.90;3.70;;;;;;;11.14;72.81;100737.83;107648;1255;99230;-63
2023/11/08 05:41:18;;;;;;;15.60;4.70;;;;;;;11.18;72.94;100733.51;107598;1253;99731;-63
2023/11/08 05:43:46;;;;;;;13.60;4.10;;;;;;;11.21;73.03;100736.48;107653;1253;112529;-61
2023/11/08 05:46:16;;;;;;;13.60;3.70;;;;;;;11.24;73.09;100732.17;107600;1253;109812;-62
2023/11/08 05:48:45;;;;;;;13.40;3.50;;;;;;;11.27;73.20;100726.27;107505;1252;108439;-62
2023/11/08 05:51:13;;;;;;;12.30;3.50;;;;;;;11.25;72.94;100725.34;107514;1251;99187;-63
2023/11/08 05:53:42;;;;;;;12.90;4.20;;;;;;;11.24;72.86;100720.37;107630;1251;99173;-62
2023/11/08 05:56:10;;;;;;;10.20;4.40;;;;;;;11.26;73.13;100717.27;107567;1251;112828;-65
2023/11/08 05:58:39;;;;;;;16.50;6.60;;;;;;;11.30;73.16;100720.25;107597;1251;109994;-62
2023/11/08 06:01:09;;;;;;;25.60;7.10;;;;;;;11.34;73.21;100713.96;107588;1255;108898;-62
2023/11/08 06:03:37;;;;;;;19.40;5.90;;;;;;;11.37;73.22;100720.84;107554;1253;99173;-62
2023/11/08 06:06:06;;;;;;;19.00;5.90;;;;;;;11.40;73.19;100719.68;107574;1256;99279;-62
2023/11/08 06:08:34;;;;;;;23.00;6.20;;;;;;;11.45;73.43;100707.70;107511;1252;113236;-63
2023/11/08 06:11:04;;;;;;;19.30;6.80;;;;;;;11.49;73.46;100703.22;107557;1255;110124;-61
2023/11/08 06:13:34;;;;;;;14.20;6.50;;;;;;;11.52;73.60;100697.88;107622;1253;108550;-61
2023/11/08 06:16:03;;;;;;;12.50;4.20;;;;;;;11.54;73.63;100703.44;107592;1255;99218;-62
2023/11/08 06:18:32;;;;;;;15.40;6.50;;;;;;;11.51;73.36;100699.08;107642;1253;99197;-62
2023/11/08 06:21:00;;;;;;;11.20;4.30;;;;;;;11.51;73.44;100696.33;107506;1253;113350;-61
2023/11/08 06:23:32;;;;;;;11.90;5.50;;;;;;;11.52;73.40;100693.06;107658;1251;109647;-62
2023/11/08 06:26:01;;;;;;;13.60;5.50;;;;;;;11.51;73.37;100694.73;107483;1254;107351;-61
2023/11/08 06:28:29;;;;;;;17.50;5.40;;;;;;;11.49;73.32;100691.33;107502;1251;99182;-61
2023/11/08 06:31:02;;;;;;;10.80;4.70;;;;;;;11.41;73.56;100686.84;107543;1252;99192;-62
2023/11/08 06:33:31;;;;;;;11.00;4.00;;;;;;;11.34;73.54;100695.64;107529;1253;112366;-63
2023/11/08 06:35:59;;;;;;;9.90;3.70;;;;;;;11.29;73.74;100700.54;107532;1252;110356;-62
2023/11/08 06:38:28;;;;;;;9.10;4.50;;;;;;;11.23;73.89;100698.92;107444;1251;108304;-61
2023/11/08 06:40:56;;;;;;;7.30;3.90;;;;;;;11.18;74.24;100694.37;107431;1251;99219;-61
2023/11/08 06:43:24;;;;;;;6.90;3.60;;;;;;;11.12;74.12;100687.54;107508;1253;99718;-63
2023/11/08 06:45:53;;;;;;;18.10;3.80;;;;;;;11.14;74.18;100682.92;107510;1253;113140;-63
2023/11/08 06:48:21;;;;;;;14.20;3.90;;;;;;;11.16;74.34;100681.85;107468;1252;109647;-62
2023/11/08 06:50:49;;;;;;;8.50;4.40;;;;;;;11.17;74.47;100681.20;107443;1251;108077;-61
2023/11/08 06:53:18;;;;;;;9.00;3.70;;;;;;;11.21;74.52;100671.67;107433;1253;99350;-62
2023/11/08 06:55:46;;;;;;;6.50;3.80;;;;;;;11.22;74.81;100668.52;107384;1253;99118;-61
2023/11/08 06:58:15;;;;;;;10.90;4.30;;;;;;;11.24;74.83;100662.26;107411;1251;111971;-62
2023/11/08 07:00:44;;;;;;;9.10;4.00;;;;;;;11.27;75.21;100660.36;107460;1253;109717;-63
2023/11/08 07:03:12;;;;;;;12.80;4.20;;;;;;;11.30;75.17;100665.66;107447;1255;108534;-62
2023/11/08 07:05:41;;;;;;;12.30;5.00;;;;;;;11.35;75.35;100659.74;107425;1253;99305;-61
2023/11/08 07:08:10;;;;;;;13.90;4.90;;;;;;;11.42;75.76;100672.81;107475;1253;99854;-62
2023/11/08 07:10:38;;;;;;;12.50;4.30;;;;;;;11.51;75.98;100677.84;107494;1253;113183;-61
2023/11/08 07:13:07;;;;;;;11.80;4.80;;;;;;;11.60;76.57;100661.22;107459;1255;108921;-63
2023/11/08 07:15:36;;;;;;;17.80;6.60;;;;;;;11.62;77.27;100643.21;107373;1253;108139;-62
2023/11/08 07:18:04;;;;;;;17.70;8.90;;;;;;;11.67;76.99;100649.77;107497;1253;99173;-62
2023/11/08 07:20:33;;;;;;;13.10;4.00;;;;;;;11.78;77.04;100664.88;107464;1253;99182;-62
2023/11/08 07:23:02;;;;;;;13.00;5.20;;;;;;;11.85;76.95;100670.49;107455;1252;114235;-63
2023/11/08 07:25:32;;;;;;;10.90;4.10;;;;;;;11.92;76.82;100674.04;107554;1253;108165;-61
2023/11/08 07:28:01;;;;;;;17.20;4.30;;;;;;;11.94;76.70;100666.77;107510;1253;107991;-62
2023/11/08 07:30:30;;;;;;;18.60;4.60;;;;;;;11.98;76.50;100663.59;107456;1251;99160;-61
2023/11/08 07:33:00;;;;;;;12.90;4.20;;;;;;;12.03;76.43;100667.58;107557;1254;99273;-61
2023/11/08 07:35:29;;;;;;;12.30;4.40;;;;;;;12.10;76.39;100672.84;107475;1255;111722;-62
2023/11/08 07:37:57;;;;;;;17.30;4.10;;;;;;;12.15;76.60;100678.63;107491;1252;110381;-63
2023/11/08 07:40:27;;;;;;;11.40;4.20;;;;;;;12.17;76.31;100690.63;107501;1252;107854;-61
2023/11/08 07:42:55;;;;;;;11.00;4.60;;;;;;;12.24;76.56;100693.04;107447;1252;99252;-61
2023/11/08 07:45:24;;;;;;;6.80;4.10;;;;;;;12.29;76.44;100697.62;107480;1255;99243;-62
2023/11/08 07:47:52;;;;;;;10.30;4.50;;;;;;;12.35;76.43;100705.11;107467;1252;113381;-62
2023/11/08 07:50:21;;;;;;;12.00;4.90;;;;;;;12.44;76.52;100705.21;107465;1252;109740;-63
2023/11/08 07:52:49;;;;;;;10.70;4.30;;;;;;;12.51;76.37;100701.94;107467;1253;107925;-62
2023/11/08 07:55:17;;;;;;;16.50;7.50;;;;;;;12.55;76.40;100690.64;107449;1252;101195;-63
2023/11/08 07:57:45;;;;;;;16.30;4.50;;;;;;;12.52;76.36;100685.98;107616;1252;99128;-64
2023/11/08 08:00:15;;;;;;;13.80;4.30;;;;;;;12.51;75.97;100681.68;107611;1251;113291;-62
2023/11/08 08:02:44;;;;;;;10.90;5.40;;;;;;;12.55;76.26;100682.04;107447;1253;109608;-63
2023/11/08 08:05:13;;;;;;;14.00;4.50;;;;;;;12.63;76.36;100684.02;107650;1251;108843;-62
2023/11/08 08:07:41;;;;;;;14.10;4.40;;;;;;;12.73;76.54;100698.17;107521;1251;99271;-63
2023/11/08 08:10:12;;;;;;;19.20;5.70;;;;;;;12.82;76.42;100704.33;107569;1253;99178;-61
2023/11/08 08:12:41;;;;;;;11.80;5.30;;;;;;;12.88;76.05;100705.23;107612;1252;112619;-62
2023/11/08 08:15:16;;;;;;;16.60;5.90;;;;;;;12.94;75.94;100702.29;107634;1251;109099;-62
2023/11/08 08:17:45;;;;;;;16.50;6.50;;;;;;;12.99;75.54;100695.28;107559;1251;109296;-63
2023/11/08 08:20:14;;;;;;;22.70;7.30;;;;;;;13.05;75.42;100688.98;107547;1251;99202;-62
2023/11/08 08:22:43;;;;;;;20.30;7.10;;;;;;;13.11;75.35;100680.92;107581;1253;99064;-63
2023/11/08 08:25:12;;;;;;;20.90;6.90;;;;;;;13.18;75.26;100672.64;107631;1255;112473;-62
2023/11/08 08:27:42;;;;;;;16.80;7.50;;;;;;;13.25;74.85;100678.42;107587;1251;109755;-63
2023/11/08 08:30:14;;;;;;;21.90;7.20;;;;;;;13.30;74.76;100678.81;107605;1251;108465;-65
2023/11/08 08:32:44;;;;;;;19.90;7.80;;;;;;;13.35;74.72;100668.26;107559;1251;99319;-63
2023/11/08 08:35:13;;;;;;;16.20;7.00;;;;;;;13.40;74.55;100664.55;107572;1252;99251;-62
2023/11/08 08:37:41;;;;;;;22.20;7.30;;;;;;;13.41;74.28;100666.45;107611;1252;113715;-62
2023/11/08 08:40:10;;;;;;;14.80;7.30;;;;;;;13.42;74.17;100667.22;107547;1251;109789;-61
2023/11/08 08:42:41;;;;;;;19.90;7.80;;;;;;;13.41;74.05;100665.31;107585;1255;107681;-63
2023/11/08 08:45:10;;;;;;;21.00;8.10;;;;;;;13.44;74.16;100666.69;107603;1251;99253;-62
2023/11/08 08:47:40;;;;;;;13.50;7.00;;;;;;;13.45;74.07;100669.77;107613;1253;100885;-62
2023/11/08 08:50:13;;;;;;;17.00;7.20;;;;;;;13.46;74.04;100663.33;107553;1255;112824;-62
2023/11/08 08:52:44;;;;;;;19.70;7.00;;;;;;;13.50;74.01;100661.93;107666;1253;108249;-62
2023/11/08 08:55:15;;;;;;;18.50;8.10;;;;;;;13.57;74.10;100655.84;107575;1252;106883;-63
2023/11/08 08:57:46;;;;;;;17.40;7.30;;;;;;;13.66;74.15;100647.54;107504;1251;99168;-62
2023/11/08 09:00:19;;;;;;;16.50;7.50;;;;;;;13.74;74.08;100641.92;107564;1253;99743;-62
2023/11/08 09:02:47;;;;;;;18.30;6.60;;;;;;;13.87;74.29;100638.78;107593;1251;113469;-62
2023/11/08 09:05:20;;;;;;;17.40;6.70;;;;;;;14.02;74.25;100633.57;107605;1255;109427;-64
2023/11/08 09:07:51;;;;;;;18.40;7.50;;;;;;;14.16;73.84;100631.98;107575;1251;108119;-62
2023/11/08 09:10:21;;;;;;;15.50;8.30;;;;;;;14.35;73.80;100622.61;107558;1253;99235;-62
2023/11/08 09:12:50;;;;;;;17.90;8.60;;;;;;;14.51;73.34;100618.00;107622;1251;99195;-63
2023/11/08 09:15:19;;;;;;;17.60;7.70;;;;;;;14.75;73.17;100612.52;107580;1251;113401;-63
2023/11/08 09:17:47;;;;;;;17.50;8.40;;;;;;;15.07;72.80;100609.97;107574;1253;109287;-61
2023/11/08 09:20:16;;;;;;;26.90;10.60;;;;;;;15.47;72.54;100614.52;107522;1253;109165;-61
2023/11/08 09:22:45;;;;;;;19.40;7.60;;;;;;;15.89;71.51;100598.30;107544;1252;99288;-62
2023/11/08 09:25:13;;;;;;;19.50;8.30;;;;;;;16.08;70.50;100595.23;107581;1251;99829;-63
2023/11/08 09:27:41;;;;;;;15.20;7.20;;;;;;;16.22;70.12;100603.96;107605;1251;112574;-63
2023/11/08 09:30:12;;;;;;;16.60;7.30;;;;;;;16.41;69.18;100614.83;107545;1253;108814;-63
2023/11/08 09:32:40;;;;;;;17.40;7.60;;;;;;;16.60;68.64;100624.58;107467;1252;108557;-62
2023/11/08 09:35:08;;;;;;;21.40;8.30;;;;;;;16.66;68.05;100615.96;107513;1253;99190;-61
2023/11/08 09:37:37;;;;;;;19.10;8.00;;;;;;;16.68;67.44;100616.99;107603;1251;99170;-63
2023/11/08 09:40:10;;;;;;;20.40;8.70;;;;;;;16.72;67.23;100605.80;107575;1252;113057;-64
2023/11/08 09:42:39;;;;;;;22.10;8.20;;;;;;;16.68;65.81;100601.35;107563;1252;109987;-64
2023/11/08 09:45:11;;;;;;;18.60;7.20;;;;;;;16.55;64.30;100596.14;107536;1252;108323;-63
2023/11/08 09:47:42;;;;;;;21.40;8.00;;;;;;;16.35;64.15;100585.67;107564;1253;99174;-61
2023/11/08 09:50:14;;;;;;;26.40;7.50;;;;;;;16.12;64.32;100577.05;107535;1253;99179;-62
2023/11/08 09:52:43;;;;;;;19.30;8.00;;;;;;;15.92;64.69;100586.20;107547;1253;113912;-63
2023/11/08 09:55:12;;;;;;;24.80;8.70;;;;;;;15.79;65.05;100583.51;107544;1253;109815;-62
2023/11/08 09:57:49;;;;;;;18.80;7.20;;;;;;;15.67;64.99;100575.89;107596;1255;108019;-62
2023/11/08 10:00:22;;;;;;;22.40;8.10;;;;;;;15.57;65.60;100568.75;107574;1253;99170;-61
2023/11/08 10:02:55;;;;;;;18.50;7.60;;;;;;;15.55;65.82;100562.98;107635;1252;99305;-62
2023/11/08 10:05:23;;;;;;;30.10;10.30;;;;;;;15.49;65.74;100564.98;107641;1253;113805;-62
2023/11/08 10:07:53;;;;;;;28.40;9.10;;;;;;;15.42;65.90;100573.04;107504;1254;109428;-62
2023/11/08 10:10:21;;;;;;;13.30;7.00;;;;;;;15.34;65.98;100570.17;107546;1254;109746;-61
2023/11/08 10:13:03;;;;;;;19.70;7.30;;;;;;;15.27;65.85;100569.71;107133;1251;593649;-62
2023/11/08 10:15:33;;;;;;;25.70;7.60;;;;;;;15.20;65.92;100577.45;107625;1254;99182;-61
2023/11/08 10:18:02;;;;;;;19.80;8.70;;;;;;;15.15;66.05;100569.91;107516;1254;113637;-62
2023/11/08 10:20:51;;;;;;;23.80;7.10;;;;;;;15.07;66.11;100566.80;107621;1254;109375;-61
2023/11/08 10:23:32;;;;;;;15.80;7.50;;;;;;;15.01;66.32;100568.56;107601;1253;107959;-63
2023/11/08 10:26:17;;;;;;;31.90;14.70;;;;;;;14.96;66.41;100566.02;107522;1253;99291;-61
2023/11/08 10:28:55;;;;;;;30.80;11.00;;;;;;;14.92;66.45;100564.64;107523;1252;99080;-62
2023/11/08 10:31:43;;;;;;;27.60;7.90;;;;;;;14.92;66.75;100559.55;107606;1254;112186;-62
2023/11/08 10:34:14;;;;;;;17.10;7.00;;;;;;;14.94;67.14;100558.67;107588;1254;110103;-62
2023/11/08 10:36:42;;;;;;;15.60;6.90;;;;;;;14.94;67.15;100557.52;107633;1254;107556;-63
2023/11/08 10:39:19;;;;;;;18.70;7.20;;;;;;;14.95;67.37;100567.07;107533;1251;99192;-63
2023/11/08 10:41:48;;;;;;;24.70;7.20;;;;;;;14.98;67.81;100566.48;107493;1254;99871;-62
2023/11/08 10:44:22;;;;;;;23.80;7.40;;;;;;;15.01;67.87;100556.95;107477;1254;112074;-62
2023/11/08 10:46:58;;;;;;;13.60;6.80;;;;;;;15.08;67.93;100557.38;107589;1251;108406;-62
2023/11/08 10:49:27;;;;;;;16.50;6.70;;;;;;;15.11;67.92;100555.92;107504;1254;108737;-63
2023/11/08 10:51:56;;;;;;;18.10;6.30;;;;;;;15.14;67.74;100556.77;107514;1253;99269;-62
2023/11/08 10:54:25;;;;;;;13.90;5.80;;;;;;;15.19;67.77;100558.66;107529;1251;99094;-62
2023/11/08 10:56:56;;;;;;;18.80;6.10;;;;;;;15.21;67.45;100554.23;107521;1251;114036;-62
2023/11/08 10:59:27;;;;;;;13.40;6.30;;;;;;;15.16;67.55;100547.62;107583;1254;109093;-63
2023/11/08 11:01:56;;;;;;;18.40;6.70;;;;;;;15.11;67.62;100550.63;107548;1254;108202;-62
2023/11/08 11:04:26;;;;;;;17.70;6.70;;;;;;;15.10;67.60;100557.32;107514;1251;99191;-62
2023/11/08 11:06:55;;;;;;;16.50;7.70;;;;;;;15.14;67.81;100556.86;107487;1253;99209;-62
2023/11/08 11:09:24;;;;;;;12.20;6.90;;;;;;;15.23;67.69;100555.80;107591;1251;113335;-62
2023/11/08 11:12:04;;;;;;;10.90;5.80;;;;;;;15.31;67.22;100551.10;107584;1253;108003;-62
2023/11/08 11:14:43;;;;;;;25.50;7.80;;;;;;;15.38;67.09;100550.04;107496;1252;108685;-63
2023/11/08 11:17:16;;;;;;;19.80;7.00;;;;;;;15.42;66.88;100542.71;107427;1252;99220;-61